Spectre — WDD9732 — position and weather

sailwx.info

Track history (hours):
 
Tides and Currents Weather Stations Pressure Air Temp Water Temp Dewpoint Dewpoint Depression Visibility Wind Speed Wind Dir Waves Ship Positions

Spectre

Owner: De Witt - Lane's, LLC, San Marino, CA. More information available from US FCC via Universal Licensing System and Coast Guard Vessel Documentation Center.

Last reported at 2018-Jul-20 16:00 UTC. Time now 2018-Jul-20 16:02 UTC.
Position N 34°01' W 119°22'.

Length 25 m; draft 3 m.

Type: Passenger vessel. MMSI: 367315630.

Date/timePositionNaut miles runAvg speedWind from/ knotsBaromVisibWave heightAir tempDewpointWater temp
2018-Jul-20 16:00N 34°01' W 119°22'0 0.9
2018-Jul-20 15:30N 34°01' W 119°22'510.9
2018-Jul-20 15:00N 34°06' W 119°21'610.9
2018-Jul-20 14:30N 34°11' W 119°19'4 0.7
2018-Jul-20 09:08N 34°15' W 119°16'0 0.0
2018-Jul-20 08:50N 34°15' W 119°16'0 0.0
2018-Jul-20 04:23N 34°15' W 119°16'0 0.0
2018-Jul-20 03:35N 34°15' W 119°16'0 0.1
2018-Jul-20 03:29N 34°15' W 119°16'0 0.0
2018-Jul-20 00:00N 34°15' W 119°16'0 0.0
2018-Jul-19 23:02N 34°15' W 119°16'0 1.7
2018-Jul-19 23:00N 34°15' W 119°16'5 9.2
2018-Jul-19 22:30N 34°11' W 119°19'712.4
2018-Jul-19 21:59N 34°04' W 119°21'4 2.7
2018-Jul-19 20:41N 34°01' W 119°22'0 0.0
2018-Jul-19 20:29N 34°01' W 119°22'0 0.0
2018-Jul-19 19:57N 34°01' W 119°22'0 0.6
2018-Jul-19 19:30N 34°01' W 119°22'0 0.0
2018-Jul-19 19:00N 34°01' W 119°22'1 0.2
2018-Jul-19 15:30N 34°01' W 119°23'5 9.2
2018-Jul-19 15:00N 34°05' W 119°21'612.2
2018-Jul-19 14:29N 34°11' W 119°19'5 1.7
2018-Jul-19 11:53N 34°15' W 119°16'0 0.0
2018-Jul-19 11:21N 34°15' W 119°16'0 0.0
2018-Jul-19 11:00N 34°15' W 119°16'0 0.0
2018-Jul-19 09:20N 34°15' W 119°16'0 0.0
2018-Jul-19 08:01N 34°15' W 119°16'0 0.0
2018-Jul-19 07:46N 34°15' W 119°16'0 0.0
2018-Jul-19 07:13N 34°15' W 119°16'0 0.0
2018-Jul-19 06:46N 34°15' W 119°16'0 0.0
2018-Jul-19 05:45N 34°15' W 119°16'0 0.0
2018-Jul-19 05:21N 34°15' W 119°16'0 0.0
2018-Jul-19 01:44N 34°15' W 119°16'0 0.0
2018-Jul-19 01:27N 34°15' W 119°16'0 0.0
2018-Jul-19 00:53N 34°15' W 119°16'0 0.0
2018-Jul-19 00:29N 34°15' W 119°16'0 0.0
2018-Jul-19 00:00N 34°15' W 119°16'0 0.0
2018-Jul-18 23:29N 34°15' W 119°16'0 0.0
2018-Jul-18 23:00N 34°15' W 119°16'0 0.0
2018-Jul-18 22:17N 34°15' W 119°16'0 0.0
2018-Jul-18 19:25N 34°15' W 119°16'0 0.0
2018-Jul-18 18:24N 34°15' W 119°16'0 0.0
2018-Jul-18 17:57N 34°15' W 119°16'0 0.0
2018-Jul-18 17:24N 34°15' W 119°16'0 0.0
2018-Jul-18 17:00N 34°15' W 119°16'0 0.0
2018-Jul-18 16:03N 34°15' W 119°16'0 0.0
2018-Jul-18 15:42N 34°15' W 119°16'0 0.0
2018-Jul-18 15:20N 34°15' W 119°16'0 0.0
2018-Jul-18 14:41N 34°15' W 119°16'0 0.0
2018-Jul-18 14:20N 34°15' W 119°16'0 0.0
2018-Jul-18 13:19N 34°15' W 119°16'0 0.0
2018-Jul-18 12:49N 34°15' W 119°16'0 0.0
2018-Jul-18 11:44N 34°15' W 119°16'0 0.0
2018-Jul-18 11:14N 34°15' W 119°16'0 0.0
2018-Jul-18 07:15N 34°15' W 119°16'0 0.0
2018-Jul-18 04:26N 34°15' W 119°16'0 0.0
2018-Jul-17 23:12N 34°15' W 119°16'0 0.0
2018-Jul-17 23:00N 34°15' W 119°16'0 0.0
2018-Jul-17 21:17N 34°15' W 119°16'0 0.0
2018-Jul-17 20:56N 34°15' W 119°16'0 0.0
2018-Jul-17 17:45N 34°15' W 119°16'0 0.0
2018-Jul-17 17:28N 34°15' W 119°16'0 0.0
2018-Jul-17 16:55N 34°15' W 119°16'0 0.0
2018-Jul-17 14:49N 34°15' W 119°16'0 0.0
2018-Jul-17 13:32N 34°15' W 119°16'0 0.0
2018-Jul-17 13:20N 34°15' W 119°16'0 0.0
2018-Jul-17 12:56N 34°15' W 119°16'0 0.0
2018-Jul-17 12:17N 34°15' W 119°16'0 0.0
2018-Jul-17 11:56N 34°15' W 119°16'0 0.0
2018-Jul-17 11:23N 34°15' W 119°16'0 0.0
2018-Jul-17 09:56N 34°15' W 119°16'0 0.0
2018-Jul-17 09:29N 34°15' W 119°16'0 0.0
2018-Jul-17 07:59N 34°15' W 119°16'0 0.0
2018-Jul-17 06:19N 34°15' W 119°16'0 0.0
2018-Jul-17 04:19N 34°15' W 119°16'0 0.0
2018-Jul-17 03:13N 34°15' W 119°16'0 0.0
2018-Jul-17 02:58N 34°15' W 119°16'0 0.0
2018-Jul-17 01:27N 34°15' W 119°16'0 0.0
2018-Jul-16 23:15N 34°15' W 119°16'0 0.0
2018-Jul-16 22:56N 34°15' W 119°16'0 0.0
2018-Jul-16 21:38N 34°15' W 119°16'0 0.0
2018-Jul-16 21:11N 34°15' W 119°16'0 0.0
2018-Jul-16 19:12N 34°15' W 119°16'0 0.0
2018-Jul-16 16:30N 34°15' W 119°16'0 0.0
2018-Jul-16 15:14N 34°15' W 119°16'0 0.0
2018-Jul-16 14:59N 34°15' W 119°16'0 0.0
2018-Jul-16 14:13N 34°15' W 119°16'0 0.0
2018-Jul-16 13:46N 34°15' W 119°16'0 0.0
2018-Jul-16 13:28N 34°15' W 119°16'0 0.0
2018-Jul-16 12:55N 34°15' W 119°16'0 0.0
2018-Jul-16 11:48N 34°15' W 119°16'0 0.0
2018-Jul-16 11:24N 34°15' W 119°16'0 0.0
2018-Jul-16 10:08N 34°15' W 119°16'0 0.0
2018-Jul-16 09:59N 34°15' W 119°16'0 0.0
2018-Jul-16 09:23N 34°15' W 119°16'0 0.0
2018-Jul-16 08:22N 34°15' W 119°16'0 0.0
2018-Jul-16 07:58N 34°15' W 119°16'0 0.0
2018-Jul-16 06:16N 34°15' W 119°16'0 0.0
2018-Jul-16 05:55N 34°15' W 119°16'0 0.0
2018-Jul-16 05:22N 34°15' W 119°16'0 0.0
2018-Jul-16 04:52N 34°15' W 119°16'0 0.0
2018-Jul-16 03:22N 34°15' W 119°16'0 0.0
2018-Jul-16 01:18N 34°15' W 119°16'0 0.0
2018-Jul-16 00:54N 34°15' W 119°16'0 0.0
2018-Jul-15 23:57N 34°15' W 119°16'4 8.2
2018-Jul-15 23:28N 34°13' W 119°20'612.2
2018-Jul-15 23:00N 34°09' W 119°25'612.2
2018-Jul-15 22:30N 34°05' W 119°31'3 4.6
2018-Jul-15 21:53N 34°03' W 119°33'0 0.0
2018-Jul-15 20:20N 34°03' W 119°33'0 0.0
2018-Jul-15 19:56N 34°03' W 119°33'0 0.1
2018-Jul-15 18:20N 34°03' W 119°33'3 6.8
2018-Jul-15 17:57N 34°03' W 119°36'0 0.0
2018-Jul-15 16:07N 34°03' W 119°36'0 0.3
2018-Jul-15 15:58N 34°03' W 119°36'510.4
2018-Jul-15 15:27N 34°06' W 119°31'711.9
2018-Jul-15 14:51N 34°10' W 119°24'411.9
2018-Jul-15 14:30N 34°12' W 119°20'4 8.0
2018-Jul-15 14:00N 34°15' W 119°16'0 0.0
2018-Jul-15 13:30N 34°15' W 119°16'0 0.0
2018-Jul-15 12:57N 34°15' W 119°16'0 0.0
2018-Jul-15 12:25N 34°15' W 119°16'0 0.0
2018-Jul-15 11:52N 34°15' W 119°16'0 0.0
2018-Jul-15 11:19N 34°15' W 119°16'0 0.0
2018-Jul-15 10:52N 34°15' W 119°16'0 0.0
2018-Jul-15 10:28N 34°15' W 119°16'0 0.0
2018-Jul-15 09:28N 34°15' W 119°16'0 0.0
2018-Jul-15 08:52N 34°15' W 119°16'0 0.0
2018-Jul-15 08:28N 34°15' W 119°16'0 0.0
2018-Jul-15 07:58N 34°15' W 119°16'0 0.0
2018-Jul-15 07:16N 34°15' W 119°16'0 0.0
2018-Jul-15 06:55N 34°15' W 119°16'0 0.0
2018-Jul-15 06:25N 34°15' W 119°16'0 0.0
2018-Jul-15 05:54N 34°15' W 119°16'0 0.0
2018-Jul-15 05:12N 34°15' W 119°16'0 0.0
2018-Jul-15 04:57N 34°15' W 119°16'0 0.0
2018-Jul-15 04:27N 34°15' W 119°16'0 0.0
2018-Jul-15 03:42N 34°15' W 119°16'0 0.0
2018-Jul-15 03:26N 34°15' W 119°16'0 0.0
2018-Jul-15 03:00N 34°15' W 119°16'0 0.0
2018-Jul-15 02:26N 34°15' W 119°16'0 0.0
2018-Jul-15 01:56N 34°15' W 119°16'0 0.0
2018-Jul-15 01:17N 34°15' W 119°16'0 0.0
2018-Jul-15 00:14N 34°15' W 119°16'0 0.2
2018-Jul-14 23:47N 34°15' W 119°16'2 7.6
2018-Jul-14 23:30N 34°13' W 119°17'611.7
2018-Jul-14 23:00N 34°07' W 119°20'611.5
2018-Jul-14 22:30N 34°02' W 119°22'1 1.9
2018-Jul-14 21:49N 34°01' W 119°23'0 0.0
2018-Jul-14 21:25N 34°01' W 119°23'0 0.0
2018-Jul-14 20:35N 34°01' W 119°23'0 0.2
2018-Jul-14 20:30N 34°01' W 119°23'0 0.5
2018-Jul-14 19:52N 34°01' W 119°22'0 0.0
2018-Jul-14 19:25N 34°01' W 119°22'0 0.0
2018-Jul-14 18:52N 34°01' W 119°22'0 0.0
2018-Jul-14 18:30N 34°01' W 119°22'0 0.0
2018-Jul-14 18:01N 34°01' W 119°22'3 1.4
2018-Jul-14 15:43N 34°00' W 119°26'1 5.8
2018-Jul-14 15:29N 34°02' W 119°27'611.7
2018-Jul-14 15:00N 34°07' W 119°23'611.7
2018-Jul-14 14:28N 34°12' W 119°19'4 3.7
2018-Jul-14 13:28N 34°15' W 119°16'0 0.0
2018-Jul-14 12:55N 34°15' W 119°16'0 0.0
2018-Jul-14 12:25N 34°15' W 119°16'0 0.0
2018-Jul-14 11:55N 34°15' W 119°16'0 0.0
2018-Jul-14 11:28N 34°15' W 119°16'0 0.0
2018-Jul-14 10:55N 34°15' W 119°16'0 0.0
2018-Jul-14 10:22N 34°15' W 119°16'0 0.0
2018-Jul-14 09:55N 34°15' W 119°16'0 0.0
2018-Jul-14 09:27N 34°15' W 119°16'0 0.0
2018-Jul-14 08:56N 34°15' W 119°16'0 0.0
2018-Jul-14 08:28N 34°15' W 119°16'0 0.0
2018-Jul-14 07:55N 34°15' W 119°16'0 0.0
2018-Jul-14 07:28N 34°15' W 119°16'0 0.0
2018-Jul-14 06:58N 34°15' W 119°16'0 0.0
2018-Jul-14 06:25N 34°15' W 119°16'0 0.0
2018-Jul-14 05:58N 34°15' W 119°16'0 0.0
2018-Jul-14 05:28N 34°15' W 119°16'0 0.0
2018-Jul-14 04:37N 34°15' W 119°16'0 0.0
2018-Jul-14 04:10N 34°15' W 119°16'0 0.0
2018-Jul-14 03:55N 34°15' W 119°16'0 0.0
2018-Jul-14 02:55N 34°15' W 119°16'0 0.0
2018-Jul-14 02:04N 34°15' W 119°16'0 0.0
2018-Jul-14 01:49N 34°15' W 119°16'0 0.0
2018-Jul-14 00:43N 34°15' W 119°16'0 0.0
2018-Jul-14 00:25N 34°15' W 119°16'0 0.0
2018-Jul-13 23:58N 34°15' W 119°16'2 3.2
2018-Jul-13 23:30N 34°14' W 119°18'611.5
2018-Jul-13 23:00N 34°09' W 119°21'611.8
2018-Jul-13 22:30N 34°04' W 119°24'3 4.9
2018-Jul-13 21:51N 34°01' W 119°26'0 0.0
2018-Jul-13 21:30N 34°01' W 119°26'0 0.1
2018-Jul-13 20:29N 34°01' W 119°26'4 7.4
2018-Jul-13 20:00N 34°01' W 119°22'0 0.0
2018-Jul-13 19:28N 34°01' W 119°22'0 0.0
2018-Jul-13 18:58N 34°01' W 119°22'0 0.0
2018-Jul-13 18:30N 34°01' W 119°22'0 0.0
2018-Jul-13 17:58N 34°01' W 119°22'0 0.7
2018-Jul-13 17:28N 34°01' W 119°22'0 0.0
2018-Jul-13 16:58N 34°01' W 119°22'0 0.0
2018-Jul-13 16:28N 34°01' W 119°22'0 0.0
2018-Jul-13 15:55N 34°01' W 119°22'0 0.0
2018-Jul-13 15:30N 34°01' W 119°22'510.5
2018-Jul-13 15:00N 34°06' W 119°21'9 8.3
2018-Jul-13 13:52N 34°15' W 119°16'0 0.0
2018-Jul-13 13:28N 34°15' W 119°16'0 0.0
2018-Jul-13 12:58N 34°15' W 119°16'0 0.0
2018-Jul-13 12:23N 34°15' W 119°16'0 0.0
2018-Jul-13 11:56N 34°15' W 119°16'0 0.0
2018-Jul-13 11:29N 34°15' W 119°16'0 0.0
2018-Jul-13 10:50N 34°15' W 119°16'0 0.0
2018-Jul-13 10:29N 34°15' W 119°16'0 0.0
2018-Jul-13 09:48N 34°15' W 119°16'0 0.0
2018-Jul-13 09:28N 34°15' W 119°16'0 0.0
2018-Jul-13 08:55N 34°15' W 119°16'0 0.0
2018-Jul-13 08:28N 34°15' W 119°16'0 0.0
2018-Jul-13 07:55N 34°15' W 119°16'0 0.0
2018-Jul-13 07:25N 34°15' W 119°16'0 0.0
2018-Jul-13 06:55N 34°15' W 119°16'0 0.0
2018-Jul-13 06:28N 34°15' W 119°16'0 0.0
2018-Jul-13 05:52N 34°15' W 119°16'0 0.0
2018-Jul-13 05:19N 34°15' W 119°16'0 0.0
2018-Jul-13 04:58N 34°15' W 119°16'0 0.0
2018-Jul-13 04:27N 34°15' W 119°16'0 0.0
2018-Jul-13 03:49N 34°15' W 119°16'0 0.0
2018-Jul-13 03:28N 34°15' W 119°16'0 0.0
2018-Jul-13 02:55N 34°15' W 119°16'0 0.0
2018-Jul-13 02:25N 34°15' W 119°16'0 0.0
2018-Jul-13 01:55N 34°15' W 119°16'0 0.0
2018-Jul-13 01:22N 34°15' W 119°16'0 0.0
2018-Jul-13 00:52N 34°15' W 119°16'0 0.0
2018-Jul-13 00:16N 34°15' W 119°16'0 0.0
2018-Jul-12 23:49N 34°15' W 119°16'0 0.0
2018-Jul-12 23:25N 34°15' W 119°16'0 0.0
2018-Jul-12 22:44N 34°15' W 119°16'0 0.0
2018-Jul-12 22:29N 34°15' W 119°16'0 0.0
2018-Jul-12 21:58N 34°15' W 119°16'0 0.0
2018-Jul-12 21:28N 34°15' W 119°16'0 0.0
2018-Jul-12 20:52N 34°15' W 119°16'0 0.0
2018-Jul-12 20:19N 34°15' W 119°16'0 0.0
2018-Jul-12 19:55N 34°15' W 119°16'0 0.0
2018-Jul-12 19:24N 34°15' W 119°16'0 0.0
2018-Jul-12 19:00N 34°15' W 119°16'0 0.0
2018-Jul-12 18:27N 34°15' W 119°16'0 0.0
2018-Jul-12 17:41N 34°15' W 119°16'0 0.0
2018-Jul-12 17:26N 34°15' W 119°16'0 0.0
2018-Jul-12 16:53N 34°15' W 119°16'0 0.0
2018-Jul-12 16:26N 34°15' W 119°16'0 0.0
2018-Jul-12 16:00N 34°15' W 119°16'0 0.0
2018-Jul-12 15:30N 34°15' W 119°16'0 0.0
2018-Jul-12 15:00N 34°15' W 119°16'0 0.0
2018-Jul-12 14:27N 34°15' W 119°16'0 0.0
2018-Jul-12 14:00N 34°15' W 119°16'0 0.0
2018-Jul-12 13:30N 34°15' W 119°16'0 0.0
2018-Jul-12 12:57N 34°15' W 119°16'0 0.0
2018-Jul-12 12:28N 34°15' W 119°16'0 0.0
2018-Jul-12 12:00N 34°15' W 119°16'0 0.0
2018-Jul-12 11:22N 34°15' W 119°16'0 0.0
2018-Jul-12 10:58N 34°15' W 119°16'0 0.0
2018-Jul-12 10:25N 34°15' W 119°16'0 0.0
2018-Jul-12 09:55N 34°15' W 119°16'0 0.0
2018-Jul-12 09:28N 34°15' W 119°16'0 0.0
2018-Jul-12 08:57N 34°15' W 119°16'0 0.0
2018-Jul-12 08:24N 34°15' W 119°16'0 0.0
2018-Jul-12 07:58N 34°15' W 119°16'0 0.0
2018-Jul-12 07:28N 34°15' W 119°16'0 0.0
2018-Jul-12 06:54N 34°15' W 119°16'0 0.0
2018-Jul-12 06:29N 34°15' W 119°16'0 0.0
2018-Jul-12 05:59N 34°15' W 119°16'0 0.0
2018-Jul-12 05:23N 34°15' W 119°16'0 0.0
2018-Jul-12 04:59N 34°15' W 119°16'0 0.0
2018-Jul-12 04:29N 34°15' W 119°16'0 0.0
2018-Jul-12 03:59N 34°15' W 119°16'0 0.0
2018-Jul-12 03:29N 34°15' W 119°16'0 0.0
2018-Jul-12 02:55N 34°15' W 119°16'0 0.0
2018-Jul-12 02:28N 34°15' W 119°16'0 0.0
2018-Jul-12 01:59N 34°15' W 119°16'0 0.0
2018-Jul-12 01:28N 34°15' W 119°16'0 0.0
2018-Jul-12 00:09N 34°15' W 119°16'0 0.0
2018-Jul-12 00:00N 34°15' W 119°16'0 0.0
2018-Jul-11 23:27N 34°15' W 119°16'0 0.0
2018-Jul-11 23:00N 34°15' W 119°16'0 0.0
2018-Jul-11 22:22N 34°15' W 119°16'0 0.0
2018-Jul-11 22:00N 34°15' W 119°16'0 0.0
2018-Jul-11 21:24N 34°15' W 119°16'0 0.0
2018-Jul-11 20:57N 34°15' W 119°16'0 0.0
2018-Jul-11 20:29N 34°15' W 119°16'0 0.0
2018-Jul-11 19:55N 34°15' W 119°16'0 0.0
2018-Jul-11 19:23N 34°15' W 119°16'0 0.0
2018-Jul-11 18:55N 34°15' W 119°16'0 0.0
2018-Jul-11 18:27N 34°15' W 119°16'0 0.0
2018-Jul-11 18:00N 34°15' W 119°16'0 0.0
2018-Jul-11 17:23N 34°15' W 119°16'0 0.0
2018-Jul-11 17:00N 34°15' W 119°16'0 0.0
2018-Jul-11 16:29N 34°15' W 119°16'0 0.0
2018-Jul-11 15:53N 34°15' W 119°16'0 0.0
2018-Jul-11 15:29N 34°15' W 119°16'0 0.0
2018-Jul-11 14:59N 34°15' W 119°16'0 0.0
2018-Jul-11 14:26N 34°15' W 119°16'0 0.0
2018-Jul-11 13:59N 34°15' W 119°16'0 0.0
2018-Jul-11 13:29N 34°15' W 119°16'0 0.0
2018-Jul-11 12:48N 34°15' W 119°16'0 0.0
2018-Jul-11 12:19N 34°15' W 119°16'0 0.0
2018-Jul-11 11:59N 34°15' W 119°16'0 0.0
2018-Jul-11 11:29N 34°15' W 119°16'0 0.0
2018-Jul-11 10:58N 34°15' W 119°16'0 0.0
2018-Jul-11 10:11N 34°15' W 119°16'0 0.0
2018-Jul-11 09:56N 34°15' W 119°16'0 0.0
2018-Jul-11 09:30N 34°15' W 119°16'0 0.0
2018-Jul-11 08:17N 34°15' W 119°16'0 0.0
2018-Jul-11 07:51N 34°15' W 119°16'0 0.0
2018-Jul-11 07:27N 34°15' W 119°16'0 0.0
2018-Jul-11 06:55N 34°15' W 119°16'0 0.0
2018-Jul-11 06:29N 34°15' W 119°16'0 0.0
2018-Jul-11 06:00N 34°15' W 119°16'0 0.0
2018-Jul-11 05:22N 34°15' W 119°16'0 0.0
2018-Jul-11 04:55N 34°15' W 119°16'0 0.0
2018-Jul-11 04:28N 34°15' W 119°16'0 0.0
2018-Jul-11 03:49N 34°15' W 119°16'0 0.0
2018-Jul-11 03:28N 34°15' W 119°16'0 0.0
2018-Jul-11 00:29N 34°15' W 119°16'0 0.0
2018-Jul-10 21:02N 34°15' W 119°16'0 0.0
2018-Jul-10 20:48N 34°15' W 119°16'0 0.0
2018-Jul-10 20:30N 34°15' W 119°16'0 0.0
2018-Jul-10 19:54N 34°15' W 119°16'0 0.0
2018-Jul-10 19:21N 34°15' W 119°16'0 0.0
2018-Jul-10 18:48N 34°15' W 119°16'0 0.0
2018-Jul-10 18:30N 34°15' W 119°16'0 0.0
2018-Jul-10 18:00N 34°15' W 119°16'0 0.0
2018-Jul-10 17:26N 34°15' W 119°16'0 0.0
2018-Jul-10 16:56N 34°15' W 119°16'0 0.0
2018-Jul-10 16:23N 34°15' W 119°16'  
Track history (hours):
 
Tides and Currents Weather Stations Pressure Air Temp Water Temp Dewpoint Dewpoint Depression Visibility Wind Speed Wind Dir Waves Ship Positions

Spectre

Owner: De Witt - Lane's, LLC, San Marino, CA. More information available from US FCC via Universal Licensing System and Coast Guard Vessel Documentation Center.

Last reported at 2018-Jul-20 16:00 UTC. Time now 2018-Jul-20 16:02 UTC.
Position N 34°01' W 119°22'.

Length 25 m; draft 3 m.

Type: Passenger vessel. MMSI: 367315630.

Date/timePositionNaut miles runAvg speedWind from/ knotsBaromVisibWave heightAir tempDewpointWater temp
2018-Jul-20 16:00N 34°01' W 119°22'0 0.9
2018-Jul-20 15:30N 34°01' W 119°22'510.9
2018-Jul-20 15:00N 34°06' W 119°21'610.9
2018-Jul-20 14:30N 34°11' W 119°19'4 0.7
2018-Jul-20 09:08N 34°15' W 119°16'0 0.0
2018-Jul-20 08:50N 34°15' W 119°16'0 0.0
2018-Jul-20 04:23N 34°15' W 119°16'0 0.0
2018-Jul-20 03:35N 34°15' W 119°16'0 0.1
2018-Jul-20 03:29N 34°15' W 119°16'0 0.0
2018-Jul-20 00:00N 34°15' W 119°16'0 0.0
2018-Jul-19 23:02N 34°15' W 119°16'0 1.7
2018-Jul-19 23:00N 34°15' W 119°16'5 9.2
2018-Jul-19 22:30N 34°11' W 119°19'712.4
2018-Jul-19 21:59N 34°04' W 119°21'4 2.7
2018-Jul-19 20:41N 34°01' W 119°22'0 0.0
2018-Jul-19 20:29N 34°01' W 119°22'0 0.0
2018-Jul-19 19:57N 34°01' W 119°22'0 0.6
2018-Jul-19 19:30N 34°01' W 119°22'0 0.0
2018-Jul-19 19:00N 34°01' W 119°22'1 0.2
2018-Jul-19 15:30N 34°01' W 119°23'5 9.2
2018-Jul-19 15:00N 34°05' W 119°21'612.2
2018-Jul-19 14:29N 34°11' W 119°19'5 1.7
2018-Jul-19 11:53N 34°15' W 119°16'0 0.0
2018-Jul-19 11:21N 34°15' W 119°16'0 0.0
2018-Jul-19 11:00N 34°15' W 119°16'0 0.0
2018-Jul-19 09:20N 34°15' W 119°16'0 0.0
2018-Jul-19 08:01N 34°15' W 119°16'0 0.0
2018-Jul-19 07:46N 34°15' W 119°16'0 0.0
2018-Jul-19 07:13N 34°15' W 119°16'0 0.0
2018-Jul-19 06:46N 34°15' W 119°16'0 0.0
2018-Jul-19 05:45N 34°15' W 119°16'0 0.0
2018-Jul-19 05:21N 34°15' W 119°16'0 0.0
2018-Jul-19 01:44N 34°15' W 119°16'0 0.0
2018-Jul-19 01:27N 34°15' W 119°16'0 0.0
2018-Jul-19 00:53N 34°15' W 119°16'0 0.0
2018-Jul-19 00:29N 34°15' W 119°16'0 0.0
2018-Jul-19 00:00N 34°15' W 119°16'0 0.0
2018-Jul-18 23:29N 34°15' W 119°16'0 0.0
2018-Jul-18 23:00N 34°15' W 119°16'0 0.0
2018-Jul-18 22:17N 34°15' W 119°16'0 0.0
2018-Jul-18 19:25N 34°15' W 119°16'0 0.0
2018-Jul-18 18:24N 34°15' W 119°16'0 0.0
2018-Jul-18 17:57N 34°15' W 119°16'0 0.0
2018-Jul-18 17:24N 34°15' W 119°16'0 0.0
2018-Jul-18 17:00N 34°15' W 119°16'0 0.0
2018-Jul-18 16:03N 34°15' W 119°16'0 0.0
2018-Jul-18 15:42N 34°15' W 119°16'0 0.0
2018-Jul-18 15:20N 34°15' W 119°16'0 0.0
2018-Jul-18 14:41N 34°15' W 119°16'0 0.0
2018-Jul-18 14:20N 34°15' W 119°16'0 0.0
2018-Jul-18 13:19N 34°15' W 119°16'0 0.0
2018-Jul-18 12:49N 34°15' W 119°16'0 0.0
2018-Jul-18 11:44N 34°15' W 119°16'0 0.0
2018-Jul-18 11:14N 34°15' W 119°16'0 0.0
2018-Jul-18 07:15N 34°15' W 119°16'0 0.0
2018-Jul-18 04:26N 34°15' W 119°16'0 0.0
2018-Jul-17 23:12N 34°15' W 119°16'0 0.0
2018-Jul-17 23:00N 34°15' W 119°16'0 0.0
2018-Jul-17 21:17N 34°15' W 119°16'0 0.0
2018-Jul-17 20:56N 34°15' W 119°16'0 0.0
2018-Jul-17 17:45N 34°15' W 119°16'0 0.0
2018-Jul-17 17:28N 34°15' W 119°16'0 0.0
2018-Jul-17 16:55N 34°15' W 119°16'0 0.0
2018-Jul-17 14:49N 34°15' W 119°16'0 0.0
2018-Jul-17 13:32N 34°15' W 119°16'0 0.0
2018-Jul-17 13:20N 34°15' W 119°16'0 0.0
2018-Jul-17 12:56N 34°15' W 119°16'0 0.0
2018-Jul-17 12:17N 34°15' W 119°16'0 0.0
2018-Jul-17 11:56N 34°15' W 119°16'0 0.0
2018-Jul-17 11:23N 34°15' W 119°16'0 0.0
2018-Jul-17 09:56N 34°15' W 119°16'0 0.0
2018-Jul-17 09:29N 34°15' W 119°16'0 0.0
2018-Jul-17 07:59N 34°15' W 119°16'0 0.0
2018-Jul-17 06:19N 34°15' W 119°16'0 0.0
2018-Jul-17 04:19N 34°15' W 119°16'0 0.0
2018-Jul-17 03:13N 34°15' W 119°16'0 0.0
2018-Jul-17 02:58N 34°15' W 119°16'0 0.0
2018-Jul-17 01:27N 34°15' W 119°16'0 0.0
2018-Jul-16 23:15N 34°15' W 119°16'0 0.0
2018-Jul-16 22:56N 34°15' W 119°16'0 0.0
2018-Jul-16 21:38N 34°15' W 119°16'0 0.0
2018-Jul-16 21:11N 34°15' W 119°16'0 0.0
2018-Jul-16 19:12N 34°15' W 119°16'0 0.0
2018-Jul-16 16:30N 34°15' W 119°16'0 0.0
2018-Jul-16 15:14N 34°15' W 119°16'0 0.0
2018-Jul-16 14:59N 34°15' W 119°16'0 0.0
2018-Jul-16 14:13N 34°15' W 119°16'0 0.0
2018-Jul-16 13:46N 34°15' W 119°16'0 0.0
2018-Jul-16 13:28N 34°15' W 119°16'0 0.0
2018-Jul-16 12:55N 34°15' W 119°16'0 0.0
2018-Jul-16 11:48N 34°15' W 119°16'0 0.0
2018-Jul-16 11:24N 34°15' W 119°16'0 0.0
2018-Jul-16 10:08N 34°15' W 119°16'0 0.0
2018-Jul-16 09:59N 34°15' W 119°16'0 0.0
2018-Jul-16 09:23N 34°15' W 119°16'0 0.0
2018-Jul-16 08:22N 34°15' W 119°16'0 0.0
2018-Jul-16 07:58N 34°15' W 119°16'0 0.0
2018-Jul-16 06:16N 34°15' W 119°16'0 0.0
2018-Jul-16 05:55N 34°15' W 119°16'0 0.0
2018-Jul-16 05:22N 34°15' W 119°16'0 0.0
2018-Jul-16 04:52N 34°15' W 119°16'0 0.0
2018-Jul-16 03:22N 34°15' W 119°16'0 0.0
2018-Jul-16 01:18N 34°15' W 119°16'0 0.0
2018-Jul-16 00:54N 34°15' W 119°16'0 0.0
2018-Jul-15 23:57N 34°15' W 119°16'4 8.2
2018-Jul-15 23:28N 34°13' W 119°20'612.2
2018-Jul-15 23:00N 34°09' W 119°25'612.2
2018-Jul-15 22:30N 34°05' W 119°31'3 4.6
2018-Jul-15 21:53N 34°03' W 119°33'0 0.0
2018-Jul-15 20:20N 34°03' W 119°33'0 0.0
2018-Jul-15 19:56N 34°03' W 119°33'0 0.1
2018-Jul-15 18:20N 34°03' W 119°33'3 6.8
2018-Jul-15 17:57N 34°03' W 119°36'0 0.0
2018-Jul-15 16:07N 34°03' W 119°36'0 0.3
2018-Jul-15 15:58N 34°03' W 119°36'510.4
2018-Jul-15 15:27N 34°06' W 119°31'711.9
2018-Jul-15 14:51N 34°10' W 119°24'411.9
2018-Jul-15 14:30N 34°12' W 119°20'4 8.0
2018-Jul-15 14:00N 34°15' W 119°16'0 0.0
2018-Jul-15 13:30N 34°15' W 119°16'0 0.0
2018-Jul-15 12:57N 34°15' W 119°16'0 0.0
2018-Jul-15 12:25N 34°15' W 119°16'0 0.0
2018-Jul-15 11:52N 34°15' W 119°16'0 0.0
2018-Jul-15 11:19N 34°15' W 119°16'0 0.0
2018-Jul-15 10:52N 34°15' W 119°16'0 0.0
2018-Jul-15 10:28N 34°15' W 119°16'0 0.0
2018-Jul-15 09:28N 34°15' W 119°16'0 0.0
2018-Jul-15 08:52N 34°15' W 119°16'0 0.0
2018-Jul-15 08:28N 34°15' W 119°16'0 0.0
2018-Jul-15 07:58N 34°15' W 119°16'0 0.0
2018-Jul-15 07:16N 34°15' W 119°16'0 0.0
2018-Jul-15 06:55N 34°15' W 119°16'0 0.0
2018-Jul-15 06:25N 34°15' W 119°16'0 0.0
2018-Jul-15 05:54N 34°15' W 119°16'0 0.0
2018-Jul-15 05:12N 34°15' W 119°16'0 0.0
2018-Jul-15 04:57N 34°15' W 119°16'0 0.0
2018-Jul-15 04:27N 34°15' W 119°16'0 0.0
2018-Jul-15 03:42N 34°15' W 119°16'0 0.0
2018-Jul-15 03:26N 34°15' W 119°16'0 0.0
2018-Jul-15 03:00N 34°15' W 119°16'0 0.0
2018-Jul-15 02:26N 34°15' W 119°16'0 0.0
2018-Jul-15 01:56N 34°15' W 119°16'0 0.0
2018-Jul-15 01:17N 34°15' W 119°16'0 0.0
2018-Jul-15 00:14N 34°15' W 119°16'0 0.2
2018-Jul-14 23:47N 34°15' W 119°16'2 7.6
2018-Jul-14 23:30N 34°13' W 119°17'611.7
2018-Jul-14 23:00N 34°07' W 119°20'611.5
2018-Jul-14 22:30N 34°02' W 119°22'1 1.9
2018-Jul-14 21:49N 34°01' W 119°23'0 0.0
2018-Jul-14 21:25N 34°01' W 119°23'0 0.0
2018-Jul-14 20:35N 34°01' W 119°23'0 0.2
2018-Jul-14 20:30N 34°01' W 119°23'0 0.5
2018-Jul-14 19:52N 34°01' W 119°22'0 0.0
2018-Jul-14 19:25N 34°01' W 119°22'0 0.0
2018-Jul-14 18:52N 34°01' W 119°22'0 0.0
2018-Jul-14 18:30N 34°01' W 119°22'0 0.0
2018-Jul-14 18:01N 34°01' W 119°22'3 1.4
2018-Jul-14 15:43N 34°00' W 119°26'1 5.8
2018-Jul-14 15:29N 34°02' W 119°27'611.7
2018-Jul-14 15:00N 34°07' W 119°23'611.7
2018-Jul-14 14:28N 34°12' W 119°19'4 3.7
2018-Jul-14 13:28N 34°15' W 119°16'0 0.0
2018-Jul-14 12:55N 34°15' W 119°16'0 0.0
2018-Jul-14 12:25N 34°15' W 119°16'0 0.0
2018-Jul-14 11:55N 34°15' W 119°16'0 0.0
2018-Jul-14 11:28N 34°15' W 119°16'0 0.0
2018-Jul-14 10:55N 34°15' W 119°16'0 0.0
2018-Jul-14 10:22N 34°15' W 119°16'0 0.0
2018-Jul-14 09:55N 34°15' W 119°16'0 0.0
2018-Jul-14 09:27N 34°15' W 119°16'0 0.0
2018-Jul-14 08:56N 34°15' W 119°16'0 0.0
2018-Jul-14 08:28N 34°15' W 119°16'0 0.0
2018-Jul-14 07:55N 34°15' W 119°16'0 0.0
2018-Jul-14 07:28N 34°15' W 119°16'0 0.0
2018-Jul-14 06:58N 34°15' W 119°16'0 0.0
2018-Jul-14 06:25N 34°15' W 119°16'0 0.0
2018-Jul-14 05:58N 34°15' W 119°16'0 0.0
2018-Jul-14 05:28N 34°15' W 119°16'0 0.0
2018-Jul-14 04:37N 34°15' W 119°16'0 0.0
2018-Jul-14 04:10N 34°15' W 119°16'0 0.0
2018-Jul-14 03:55N 34°15' W 119°16'0 0.0
2018-Jul-14 02:55N 34°15' W 119°16'0 0.0
2018-Jul-14 02:04N 34°15' W 119°16'0 0.0
2018-Jul-14 01:49N 34°15' W 119°16'0 0.0
2018-Jul-14 00:43N 34°15' W 119°16'0 0.0
2018-Jul-14 00:25N 34°15' W 119°16'0 0.0
2018-Jul-13 23:58N 34°15' W 119°16'2 3.2
2018-Jul-13 23:30N 34°14' W 119°18'611.5
2018-Jul-13 23:00N 34°09' W 119°21'611.8
2018-Jul-13 22:30N 34°04' W 119°24'3 4.9
2018-Jul-13 21:51N 34°01' W 119°26'0 0.0
2018-Jul-13 21:30N 34°01' W 119°26'0 0.1
2018-Jul-13 20:29N 34°01' W 119°26'4 7.4
2018-Jul-13 20:00N 34°01' W 119°22'0 0.0
2018-Jul-13 19:28N 34°01' W 119°22'0 0.0
2018-Jul-13 18:58N 34°01' W 119°22'0 0.0
2018-Jul-13 18:30N 34°01' W 119°22'0 0.0
2018-Jul-13 17:58N 34°01' W 119°22'0 0.7
2018-Jul-13 17:28N 34°01' W 119°22'0 0.0
2018-Jul-13 16:58N 34°01' W 119°22'0 0.0
2018-Jul-13 16:28N 34°01' W 119°22'0 0.0
2018-Jul-13 15:55N 34°01' W 119°22'0 0.0
2018-Jul-13 15:30N 34°01' W 119°22'510.5
2018-Jul-13 15:00N 34°06' W 119°21'9 8.3
2018-Jul-13 13:52N 34°15' W 119°16'0 0.0
2018-Jul-13 13:28N 34°15' W 119°16'0 0.0
2018-Jul-13 12:58N 34°15' W 119°16'0 0.0
2018-Jul-13 12:23N 34°15' W 119°16'0 0.0
2018-Jul-13 11:56N 34°15' W 119°16'0 0.0
2018-Jul-13 11:29N 34°15' W 119°16'0 0.0
2018-Jul-13 10:50N 34°15' W 119°16'0 0.0
2018-Jul-13 10:29N 34°15' W 119°16'0 0.0
2018-Jul-13 09:48N 34°15' W 119°16'0 0.0
2018-Jul-13 09:28N 34°15' W 119°16'0 0.0
2018-Jul-13 08:55N 34°15' W 119°16'0 0.0
2018-Jul-13 08:28N 34°15' W 119°16'0 0.0
2018-Jul-13 07:55N 34°15' W 119°16'0 0.0
2018-Jul-13 07:25N 34°15' W 119°16'0 0.0
2018-Jul-13 06:55N 34°15' W 119°16'0 0.0
2018-Jul-13 06:28N 34°15' W 119°16'0 0.0
2018-Jul-13 05:52N 34°15' W 119°16'0 0.0
2018-Jul-13 05:19N 34°15' W 119°16'0 0.0
2018-Jul-13 04:58N 34°15' W 119°16'0 0.0
2018-Jul-13 04:27N 34°15' W 119°16'0 0.0
2018-Jul-13 03:49N 34°15' W 119°16'0 0.0
2018-Jul-13 03:28N 34°15' W 119°16'0 0.0
2018-Jul-13 02:55N 34°15' W 119°16'0 0.0
2018-Jul-13 02:25N 34°15' W 119°16'0 0.0
2018-Jul-13 01:55N 34°15' W 119°16'0 0.0
2018-Jul-13 01:22N 34°15' W 119°16'0 0.0
2018-Jul-13 00:52N 34°15' W 119°16'0 0.0
2018-Jul-13 00:16N 34°15' W 119°16'0 0.0
2018-Jul-12 23:49N 34°15' W 119°16'0 0.0
2018-Jul-12 23:25N 34°15' W 119°16'0 0.0
2018-Jul-12 22:44N 34°15' W 119°16'0 0.0
2018-Jul-12 22:29N 34°15' W 119°16'0 0.0
2018-Jul-12 21:58N 34°15' W 119°16'0 0.0
2018-Jul-12 21:28N 34°15' W 119°16'0 0.0
2018-Jul-12 20:52N 34°15' W 119°16'0 0.0
2018-Jul-12 20:19N 34°15' W 119°16'0 0.0
2018-Jul-12 19:55N 34°15' W 119°16'0 0.0
2018-Jul-12 19:24N 34°15' W 119°16'0 0.0
2018-Jul-12 19:00N 34°15' W 119°16'0 0.0
2018-Jul-12 18:27N 34°15' W 119°16'0 0.0
2018-Jul-12 17:41N 34°15' W 119°16'0 0.0
2018-Jul-12 17:26N 34°15' W 119°16'0 0.0
2018-Jul-12 16:53N 34°15' W 119°16'0 0.0
2018-Jul-12 16:26N 34°15' W 119°16'0 0.0
2018-Jul-12 16:00N 34°15' W 119°16'0 0.0
2018-Jul-12 15:30N 34°15' W 119°16'0 0.0
2018-Jul-12 15:00N 34°15' W 119°16'0 0.0
2018-Jul-12 14:27N 34°15' W 119°16'0 0.0
2018-Jul-12 14:00N 34°15' W 119°16'0 0.0
2018-Jul-12 13:30N 34°15' W 119°16'0 0.0
2018-Jul-12 12:57N 34°15' W 119°16'0 0.0
2018-Jul-12 12:28N 34°15' W 119°16'0 0.0
2018-Jul-12 12:00N 34°15' W 119°16'0 0.0
2018-Jul-12 11:22N 34°15' W 119°16'0 0.0
2018-Jul-12 10:58N 34°15' W 119°16'0 0.0
2018-Jul-12 10:25N 34°15' W 119°16'0 0.0
2018-Jul-12 09:55N 34°15' W 119°16'0 0.0
2018-Jul-12 09:28N 34°15' W 119°16'0 0.0
2018-Jul-12 08:57N 34°15' W 119°16'0 0.0
2018-Jul-12 08:24N 34°15' W 119°16'0 0.0
2018-Jul-12 07:58N 34°15' W 119°16'0 0.0
2018-Jul-12 07:28N 34°15' W 119°16'0 0.0
2018-Jul-12 06:54N 34°15' W 119°16'0 0.0
2018-Jul-12 06:29N 34°15' W 119°16'0 0.0
2018-Jul-12 05:59N 34°15' W 119°16'0 0.0
2018-Jul-12 05:23N 34°15' W 119°16'0 0.0
2018-Jul-12 04:59N 34°15' W 119°16'0 0.0
2018-Jul-12 04:29N 34°15' W 119°16'0 0.0
2018-Jul-12 03:59N 34°15' W 119°16'0 0.0
2018-Jul-12 03:29N 34°15' W 119°16'0 0.0
2018-Jul-12 02:55N 34°15' W 119°16'0 0.0
2018-Jul-12 02:28N 34°15' W 119°16'0 0.0
2018-Jul-12 01:59N 34°15' W 119°16'0 0.0
2018-Jul-12 01:28N 34°15' W 119°16'0 0.0
2018-Jul-12 00:09N 34°15' W 119°16'0 0.0
2018-Jul-12 00:00N 34°15' W 119°16'0 0.0
2018-Jul-11 23:27N 34°15' W 119°16'0 0.0
2018-Jul-11 23:00N 34°15' W 119°16'0 0.0
2018-Jul-11 22:22N 34°15' W 119°16'0 0.0
2018-Jul-11 22:00N 34°15' W 119°16'0 0.0
2018-Jul-11 21:24N 34°15' W 119°16'0 0.0
2018-Jul-11 20:57N 34°15' W 119°16'0 0.0
2018-Jul-11 20:29N 34°15' W 119°16'0 0.0
2018-Jul-11 19:55N 34°15' W 119°16'0 0.0
2018-Jul-11 19:23N 34°15' W 119°16'0 0.0
2018-Jul-11 18:55N 34°15' W 119°16'0 0.0
2018-Jul-11 18:27N 34°15' W 119°16'0 0.0
2018-Jul-11 18:00N 34°15' W 119°16'0 0.0
2018-Jul-11 17:23N 34°15' W 119°16'0 0.0
2018-Jul-11 17:00N 34°15' W 119°16'0 0.0
2018-Jul-11 16:29N 34°15' W 119°16'0 0.0
2018-Jul-11 15:53N 34°15' W 119°16'0 0.0
2018-Jul-11 15:29N 34°15' W 119°16'0 0.0
2018-Jul-11 14:59N 34°15' W 119°16'0 0.0
2018-Jul-11 14:26N 34°15' W 119°16'0 0.0
2018-Jul-11 13:59N 34°15' W 119°16'0 0.0
2018-Jul-11 13:29N 34°15' W 119°16'0 0.0
2018-Jul-11 12:48N 34°15' W 119°16'0 0.0
2018-Jul-11 12:19N 34°15' W 119°16'0 0.0
2018-Jul-11 11:59N 34°15' W 119°16'0 0.0
2018-Jul-11 11:29N 34°15' W 119°16'0 0.0
2018-Jul-11 10:58N 34°15' W 119°16'0 0.0
2018-Jul-11 10:11N 34°15' W 119°16'0 0.0
2018-Jul-11 09:56N 34°15' W 119°16'0 0.0
2018-Jul-11 09:30N 34°15' W 119°16'0 0.0
2018-Jul-11 08:17N 34°15' W 119°16'0 0.0
2018-Jul-11 07:51N 34°15' W 119°16'0 0.0
2018-Jul-11 07:27N 34°15' W 119°16'0 0.0
2018-Jul-11 06:55N 34°15' W 119°16'0 0.0
2018-Jul-11 06:29N 34°15' W 119°16'0 0.0
2018-Jul-11 06:00N 34°15' W 119°16'0 0.0
2018-Jul-11 05:22N 34°15' W 119°16'0 0.0
2018-Jul-11 04:55N 34°15' W 119°16'0 0.0
2018-Jul-11 04:28N 34°15' W 119°16'0 0.0
2018-Jul-11 03:49N 34°15' W 119°16'0 0.0
2018-Jul-11 03:28N 34°15' W 119°16'0 0.0
2018-Jul-11 00:29N 34°15' W 119°16'0 0.0
2018-Jul-10 21:02N 34°15' W 119°16'0 0.0
2018-Jul-10 20:48N 34°15' W 119°16'0 0.0
2018-Jul-10 20:30N 34°15' W 119°16'0 0.0
2018-Jul-10 19:54N 34°15' W 119°16'0 0.0
2018-Jul-10 19:21N 34°15' W 119°16'0 0.0
2018-Jul-10 18:48N 34°15' W 119°16'0 0.0
2018-Jul-10 18:30N 34°15' W 119°16'0 0.0
2018-Jul-10 18:00N 34°15' W 119°16'0 0.0
2018-Jul-10 17:26N 34°15' W 119°16'0 0.0
2018-Jul-10 16:56N 34°15' W 119°16'0 0.0
2018-Jul-10 16:23N 34°15' W 119°16'  

Dump ship's entire track history